sensor_id;sensor_type;location;lat;lon;timestamp;temperature;humidity
20998;DHT22;10657;51.276;6.390;2023-02-28T00:00:35;3.10;99.90
20998;DHT22;10657;51.276;6.390;2023-02-28T00:03:02;3.00;99.90
20998;DHT22;10657;51.276;6.390;2023-02-28T00:05:30;3.00;99.90
20998;DHT22;10657;51.276;6.390;2023-02-28T00:07:57;3.10;99.90
20998;DHT22;10657;51.276;6.390;2023-02-28T00:10:26;2.90;99.90
20998;DHT22;10657;51.276;6.390;2023-02-28T00:12:55;2.80;99.90
20998;DHT22;10657;51.276;6.390;2023-02-28T00:15:24;2.90;99.90
20998;DHT22;10657;51.276;6.390;2023-02-28T00:17:50;2.90;99.90
20998;DHT22;10657;51.276;6.390;2023-02-28T00:20:18;2.90;99.90
20998;DHT22;10657;51.276;6.390;2023-02-28T00:22:46;2.80;99.90
20998;DHT22;10657;51.276;6.390;2023-02-28T00:25:16;2.70;99.90
20998;DHT22;10657;51.276;6.390;2023-02-28T00:27:44;2.80;99.90
20998;DHT22;10657;51.276;6.390;2023-02-28T00:30:20;2.80;99.90
20998;DHT22;10657;51.276;6.390;2023-02-28T00:32:47;2.80;99.90
20998;DHT22;10657;51.276;6.390;2023-02-28T00:35:14;2.60;99.90
20998;DHT22;10657;51.276;6.390;2023-02-28T00:37:41;2.60;99.90
20998;DHT22;10657;51.276;6.390;2023-02-28T00:40:08;2.60;99.90
20998;DHT22;10657;51.276;6.390;2023-02-28T00:42:36;2.50;99.90
20998;DHT22;10657;51.276;6.390;2023-02-28T00:45:03;2.50;99.90
20998;DHT22;10657;51.276;6.390;2023-02-28T00:47:31;2.50;99.90
20998;DHT22;10657;51.276;6.390;2023-02-28T00:49:58;2.50;99.90
20998;DHT22;10657;51.276;6.390;2023-02-28T00:52:25;2.50;99.90
20998;DHT22;10657;51.276;6.390;2023-02-28T00:54:52;2.50;99.90
20998;DHT22;10657;51.276;6.390;2023-02-28T00:57:19;2.20;99.90
20998;DHT22;10657;51.276;6.390;2023-02-28T00:59:45;2.10;99.90
20998;DHT22;10657;51.276;6.390;2023-02-28T01:02:12;2.20;99.90
20998;DHT22;10657;51.276;6.390;2023-02-28T01:04:39;2.20;99.90
20998;DHT22;10657;51.276;6.390;2023-02-28T01:07:06;2.20;99.90
20998;DHT22;10657;51.276;6.390;2023-02-28T01:09:32;2.20;99.90
20998;DHT22;10657;51.276;6.390;2023-02-28T01:11:59;2.20;99.90
20998;DHT22;10657;51.276;6.390;2023-02-28T01:14:26;2.20;99.90
20998;DHT22;10657;51.276;6.390;2023-02-28T01:16:52;2.20;99.90
20998;DHT22;10657;51.276;6.390;2023-02-28T01:19:19;2.10;99.90
20998;DHT22;10657;51.276;6.390;2023-02-28T01:21:46;2.10;99.90
20998;DHT22;10657;51.276;6.390;2023-02-28T01:24:13;2.20;99.90
20998;DHT22;10657;51.276;6.390;2023-02-28T01:26:40;2.10;99.90
20998;DHT22;10657;51.276;6.390;2023-02-28T01:29:06;2.00;99.90
20998;DHT22;10657;51.276;6.390;2023-02-28T01:31:33;1.90;99.90
20998;DHT22;10657;51.276;6.390;2023-02-28T01:34:00;1.90;99.90
20998;DHT22;10657;51.276;6.390;2023-02-28T01:36:27;2.10;99.90
20998;DHT22;10657;51.276;6.390;2023-02-28T01:38:54;1.90;99.90
20998;DHT22;10657;51.276;6.390;2023-02-28T01:41:23;1.80;99.90
20998;DHT22;10657;51.276;6.390;2023-02-28T01:43:57;1.90;99.90
20998;DHT22;10657;51.276;6.390;2023-02-28T01:46:24;1.90;99.90
20998;DHT22;10657;51.276;6.390;2023-02-28T01:48:54;2.00;99.90
20998;DHT22;10657;51.276;6.390;2023-02-28T01:54:07;2.00;99.90
20998;DHT22;10657;51.276;6.390;2023-02-28T01:56:44;1.90;99.90
20998;DHT22;10657;51.276;6.390;2023-02-28T01:59:16;1.90;99.90
20998;DHT22;10657;51.276;6.390;2023-02-28T02:01:46;1.90;99.90
20998;DHT22;10657;51.276;6.390;2023-02-28T02:04:13;1.80;99.90
20998;DHT22;10657;51.276;6.390;2023-02-28T02:06:44;1.90;99.90
20998;DHT22;10657;51.276;6.390;2023-02-28T02:09:12;2.00;99.90
20998;DHT22;10657;51.276;6.390;2023-02-28T02:11:41;1.90;99.90
20998;DHT22;10657;51.276;6.390;2023-02-28T02:14:40;1.80;99.90
20998;DHT22;10657;51.276;6.390;2023-02-28T02:28:18;2.10;99.90
20998;DHT22;10657;51.276;6.390;2023-02-28T02:36:34;2.20;99.90
20998;DHT22;10657;51.276;6.390;2023-02-28T02:39:14;2.10;99.90
20998;DHT22;10657;51.276;6.390;2023-02-28T02:41:52;2.20;99.90
20998;DHT22;10657;51.276;6.390;2023-02-28T02:47:09;2.30;99.90
20998;DHT22;10657;51.276;6.390;2023-02-28T02:49:39;2.40;99.90
20998;DHT22;10657;51.276;6.390;2023-02-28T02:52:11;2.20;99.90
20998;DHT22;10657;51.276;6.390;2023-02-28T02:54:44;2.10;99.90
20998;DHT22;10657;51.276;6.390;2023-02-28T02:57:37;2.40;99.90
20998;DHT22;10657;51.276;6.390;2023-02-28T03:00:04;2.30;99.90
20998;DHT22;10657;51.276;6.390;2023-02-28T03:02:36;2.30;99.90
20998;DHT22;10657;51.276;6.390;2023-02-28T03:05:35;2.20;99.90
20998;DHT22;10657;51.276;6.390;2023-02-28T03:08:05;2.10;99.90
20998;DHT22;10657;51.276;6.390;2023-02-28T03:10:48;1.90;99.90
20998;DHT22;10657;51.276;6.390;2023-02-28T03:27:15;1.60;99.90
20998;DHT22;10657;51.276;6.390;2023-02-28T03:29:47;1.60;99.90
20998;DHT22;10657;51.276;6.390;2023-02-28T03:32:24;1.50;99.90
20998;DHT22;10657;51.276;6.390;2023-02-28T03:35:00;1.30;99.90
20998;DHT22;10657;51.276;6.390;2023-02-28T03:37:32;1.40;99.90
20998;DHT22;10657;51.276;6.390;2023-02-28T03:40:14;1.20;99.90
20998;DHT22;10657;51.276;6.390;2023-02-28T03:42:46;1.30;99.90
20998;DHT22;10657;51.276;6.390;2023-02-28T03:45:19;1.30;99.90
20998;DHT22;10657;51.276;6.390;2023-02-28T03:47:52;1.40;99.90
20998;DHT22;10657;51.276;6.390;2023-02-28T03:50:27;1.30;99.90
20998;DHT22;10657;51.276;6.390;2023-02-28T03:53:01;1.20;99.90
20998;DHT22;10657;51.276;6.390;2023-02-28T03:55:38;1.20;99.90
20998;DHT22;10657;51.276;6.390;2023-02-28T03:58:26;1.30;99.90
20998;DHT22;10657;51.276;6.390;2023-02-28T04:01:08;1.30;99.90
20998;DHT22;10657;51.276;6.390;2023-02-28T04:03:37;1.20;99.90
20998;DHT22;10657;51.276;6.390;2023-02-28T04:06:06;1.30;99.90
20998;DHT22;10657;51.276;6.390;2023-02-28T04:08:33;1.20;99.90
20998;DHT22;10657;51.276;6.390;2023-02-28T04:13:41;1.40;99.90
20998;DHT22;10657;51.276;6.390;2023-02-28T04:16:08;1.40;99.90
20998;DHT22;10657;51.276;6.390;2023-02-28T04:18:50;1.50;99.90
20998;DHT22;10657;51.276;6.390;2023-02-28T04:21:16;1.70;99.90
20998;DHT22;10657;51.276;6.390;2023-02-28T04:23:47;1.80;99.90
20998;DHT22;10657;51.276;6.390;2023-02-28T04:26:13;1.80;99.90
20998;DHT22;10657;51.276;6.390;2023-02-28T04:28:40;1.90;99.90
20998;DHT22;10657;51.276;6.390;2023-02-28T04:31:06;1.70;99.90
20998;DHT22;10657;51.276;6.390;2023-02-28T04:33:33;1.50;99.90
20998;DHT22;10657;51.276;6.390;2023-02-28T04:36:01;1.10;99.90
20998;DHT22;10657;51.276;6.390;2023-02-28T04:38:32;1.50;99.90
20998;DHT22;10657;51.276;6.390;2023-02-28T04:41:00;1.60;99.90
20998;DHT22;10657;51.276;6.390;2023-02-28T04:43:27;1.40;99.90
20998;DHT22;10657;51.276;6.390;2023-02-28T04:45:55;1.80;99.90
20998;DHT22;10657;51.276;6.390;2023-02-28T04:48:24;2.10;99.90
20998;DHT22;10657;51.276;6.390;2023-02-28T04:50:51;2.50;99.90
20998;DHT22;10657;51.276;6.390;2023-02-28T04:53:18;2.50;99.90
20998;DHT22;10657;51.276;6.390;2023-02-28T04:55:45;2.50;99.90
20998;DHT22;10657;51.276;6.390;2023-02-28T04:58:13;2.00;99.90
20998;DHT22;10657;51.276;6.390;2023-02-28T05:00:40;1.90;99.90
20998;DHT22;10657;51.276;6.390;2023-02-28T05:03:06;2.20;99.90
20998;DHT22;10657;51.276;6.390;2023-02-28T05:05:33;2.30;99.90
20998;DHT22;10657;51.276;6.390;2023-02-28T05:07:59;2.60;99.90
20998;DHT22;10657;51.276;6.390;2023-02-28T05:10:26;2.50;99.90
20998;DHT22;10657;51.276;6.390;2023-02-28T05:12:53;2.70;99.90
20998;DHT22;10657;51.276;6.390;2023-02-28T05:15:19;2.50;99.90
20998;DHT22;10657;51.276;6.390;2023-02-28T05:17:46;2.30;99.90
20998;DHT22;10657;51.276;6.390;2023-02-28T05:20:13;2.30;99.90
20998;DHT22;10657;51.276;6.390;2023-02-28T05:22:43;2.40;99.90
20998;DHT22;10657;51.276;6.390;2023-02-28T05:25:17;2.60;99.90
20998;DHT22;10657;51.276;6.390;2023-02-28T05:27:44;2.30;99.90
20998;DHT22;10657;51.276;6.390;2023-02-28T05:30:11;2.50;99.90
20998;DHT22;10657;51.276;6.390;2023-02-28T05:32:38;2.40;99.90
20998;DHT22;10657;51.276;6.390;2023-02-28T05:35:05;1.90;99.90
20998;DHT22;10657;51.276;6.390;2023-02-28T05:37:32;2.20;99.90
20998;DHT22;10657;51.276;6.390;2023-02-28T05:39:59;2.10;99.90
20998;DHT22;10657;51.276;6.390;2023-02-28T05:42:26;2.20;99.90
20998;DHT22;10657;51.276;6.390;2023-02-28T05:44:52;2.10;99.90
20998;DHT22;10657;51.276;6.390;2023-02-28T05:47:19;1.90;99.90
20998;DHT22;10657;51.276;6.390;2023-02-28T05:49:46;1.70;99.90
20998;DHT22;10657;51.276;6.390;2023-02-28T05:52:12;1.90;99.90
20998;DHT22;10657;51.276;6.390;2023-02-28T05:54:39;2.00;99.90
20998;DHT22;10657;51.276;6.390;2023-02-28T05:57:05;2.30;99.90
20998;DHT22;10657;51.276;6.390;2023-02-28T05:59:48;2.20;99.90
20998;DHT22;10657;51.276;6.390;2023-02-28T06:02:16;2.40;99.90
20998;DHT22;10657;51.276;6.390;2023-02-28T06:04:43;2.30;99.90
20998;DHT22;10657;51.276;6.390;2023-02-28T06:07:10;2.40;99.90
20998;DHT22;10657;51.276;6.390;2023-02-28T06:09:37;2.50;99.90
20998;DHT22;10657;51.276;6.390;2023-02-28T06:12:06;2.20;99.90
20998;DHT22;10657;51.276;6.390;2023-02-28T06:14:34;2.20;99.90
20998;DHT22;10657;51.276;6.390;2023-02-28T06:17:01;2.00;99.90
20998;DHT22;10657;51.276;6.390;2023-02-28T06:19:28;2.20;99.90
20998;DHT22;10657;51.276;6.390;2023-02-28T06:21:56;2.40;99.90
20998;DHT22;10657;51.276;6.390;2023-02-28T06:24:24;2.30;99.90
20998;DHT22;10657;51.276;6.390;2023-02-28T06:26:51;2.60;99.90
20998;DHT22;10657;51.276;6.390;2023-02-28T06:29:18;2.80;99.90
20998;DHT22;10657;51.276;6.390;2023-02-28T06:31:46;2.50;99.90
20998;DHT22;10657;51.276;6.390;2023-02-28T06:34:13;2.70;99.90
20998;DHT22;10657;51.276;6.390;2023-02-28T06:36:41;2.90;99.90
20998;DHT22;10657;51.276;6.390;2023-02-28T06:39:08;2.80;99.90
20998;DHT22;10657;51.276;6.390;2023-02-28T06:41:35;2.50;99.90
20998;DHT22;10657;51.276;6.390;2023-02-28T06:44:21;2.30;99.90
20998;DHT22;10657;51.276;6.390;2023-02-28T06:46:48;2.60;99.90
20998;DHT22;10657;51.276;6.390;2023-02-28T06:49:15;2.60;99.90
20998;DHT22;10657;51.276;6.390;2023-02-28T06:51:44;2.80;99.90
20998;DHT22;10657;51.276;6.390;2023-02-28T06:54:13;2.50;99.90
20998;DHT22;10657;51.276;6.390;2023-02-28T06:56:40;2.70;99.90
20998;DHT22;10657;51.276;6.390;2023-02-28T06:59:07;2.70;99.90
20998;DHT22;10657;51.276;6.390;2023-02-28T07:01:33;2.50;99.90
20998;DHT22;10657;51.276;6.390;2023-02-28T07:04:01;2.30;99.90
20998;DHT22;10657;51.276;6.390;2023-02-28T07:06:27;2.30;99.90
20998;DHT22;10657;51.276;6.390;2023-02-28T07:08:55;2.30;99.90
20998;DHT22;10657;51.276;6.390;2023-02-28T07:11:23;2.70;99.90
20998;DHT22;10657;51.276;6.390;2023-02-28T07:13:55;2.60;99.90
20998;DHT22;10657;51.276;6.390;2023-02-28T07:16:23;2.80;99.90
20998;DHT22;10657;51.276;6.390;2023-02-28T07:18:53;2.80;99.90
20998;DHT22;10657;51.276;6.390;2023-02-28T07:21:19;3.00;99.90
20998;DHT22;10657;51.276;6.390;2023-02-28T07:23:46;3.00;99.90
20998;DHT22;10657;51.276;6.390;2023-02-28T07:26:15;3.10;99.90
20998;DHT22;10657;51.276;6.390;2023-02-28T07:28:44;2.90;99.90
20998;DHT22;10657;51.276;6.390;2023-02-28T07:31:12;3.00;99.90
20998;DHT22;10657;51.276;6.390;2023-02-28T07:33:41;2.90;99.90
20998;DHT22;10657;51.276;6.390;2023-02-28T07:36:10;3.00;99.90
20998;DHT22;10657;51.276;6.390;2023-02-28T07:38:43;3.50;99.90
20998;DHT22;10657;51.276;6.390;2023-02-28T07:41:15;3.60;99.90
20998;DHT22;10657;51.276;6.390;2023-02-28T07:43:42;3.40;99.90
20998;DHT22;10657;51.276;6.390;2023-02-28T07:46:11;3.70;99.90
20998;DHT22;10657;51.276;6.390;2023-02-28T07:48:38;3.80;99.90
20998;DHT22;10657;51.276;6.390;2023-02-28T07:51:05;4.00;99.90
20998;DHT22;10657;51.276;6.390;2023-02-28T07:53:31;3.80;99.90
20998;DHT22;10657;51.276;6.390;2023-02-28T07:55:59;3.70;99.90
20998;DHT22;10657;51.276;6.390;2023-02-28T07:58:28;4.00;99.90
20998;DHT22;10657;51.276;6.390;2023-02-28T08:00:55;3.80;99.90
20998;DHT22;10657;51.276;6.390;2023-02-28T08:03:23;4.10;99.90
20998;DHT22;10657;51.276;6.390;2023-02-28T08:05:50;4.00;99.90
20998;DHT22;10657;51.276;6.390;2023-02-28T08:08:16;3.90;99.90
20998;DHT22;10657;51.276;6.390;2023-02-28T08:10:43;4.30;99.90
20998;DHT22;10657;51.276;6.390;2023-02-28T08:13:10;4.50;99.90
20998;DHT22;10657;51.276;6.390;2023-02-28T08:15:36;4.40;99.90
20998;DHT22;10657;51.276;6.390;2023-02-28T08:18:03;4.40;99.90
20998;DHT22;10657;51.276;6.390;2023-02-28T08:20:30;4.70;99.90
20998;DHT22;10657;51.276;6.390;2023-02-28T08:22:57;4.80;99.90
20998;DHT22;10657;51.276;6.390;2023-02-28T08:25:24;4.70;99.90
20998;DHT22;10657;51.276;6.390;2023-02-28T08:27:51;4.50;99.90
20998;DHT22;10657;51.276;6.390;2023-02-28T08:30:18;4.50;99.90
20998;DHT22;10657;51.276;6.390;2023-02-28T08:32:45;4.60;99.90
20998;DHT22;10657;51.276;6.390;2023-02-28T08:35:12;4.80;99.90
20998;DHT22;10657;51.276;6.390;2023-02-28T08:37:38;5.00;99.90
20998;DHT22;10657;51.276;6.390;2023-02-28T08:40:06;5.10;99.90
20998;DHT22;10657;51.276;6.390;2023-02-28T08:42:33;4.80;99.90
20998;DHT22;10657;51.276;6.390;2023-02-28T08:44:59;5.20;99.90
20998;DHT22;10657;51.276;6.390;2023-02-28T08:47:26;5.50;99.90
20998;DHT22;10657;51.276;6.390;2023-02-28T08:49:53;5.80;99.90
20998;DHT22;10657;51.276;6.390;2023-02-28T08:52:19;5.70;99.90
20998;DHT22;10657;51.276;6.390;2023-02-28T08:54:46;5.90;99.90
20998;DHT22;10657;51.276;6.390;2023-02-28T08:57:12;6.00;99.90
20998;DHT22;10657;51.276;6.390;2023-02-28T08:59:40;6.30;99.90
20998;DHT22;10657;51.276;6.390;2023-02-28T09:02:08;6.40;99.90
20998;DHT22;10657;51.276;6.390;2023-02-28T09:04:35;6.40;99.90
20998;DHT22;10657;51.276;6.390;2023-02-28T09:07:02;6.10;99.90
20998;DHT22;10657;51.276;6.390;2023-02-28T09:09:29;6.20;99.90
20998;DHT22;10657;51.276;6.390;2023-02-28T09:11:56;6.20;99.90
20998;DHT22;10657;51.276;6.390;2023-02-28T09:14:23;6.20;99.90
20998;DHT22;10657;51.276;6.390;2023-02-28T09:16:49;6.10;99.90
20998;DHT22;10657;51.276;6.390;2023-02-28T09:19:16;6.10;99.90
20998;DHT22;10657;51.276;6.390;2023-02-28T09:21:43;6.10;99.90
20998;DHT22;10657;51.276;6.390;2023-02-28T09:24:09;6.40;99.90
20998;DHT22;10657;51.276;6.390;2023-02-28T09:26:38;6.40;99.90
20998;DHT22;10657;51.276;6.390;2023-02-28T09:29:17;6.60;99.90
20998;DHT22;10657;51.276;6.390;2023-02-28T09:31:43;7.00;99.90
20998;DHT22;10657;51.276;6.390;2023-02-28T09:34:11;6.80;99.90
20998;DHT22;10657;51.276;6.390;2023-02-28T09:36:37;6.80;99.90
20998;DHT22;10657;51.276;6.390;2023-02-28T09:39:11;6.90;99.90
20998;DHT22;10657;51.276;6.390;2023-02-28T09:41:42;6.80;99.90
20998;DHT22;10657;51.276;6.390;2023-02-28T09:44:30;6.90;99.90
20998;DHT22;10657;51.276;6.390;2023-02-28T09:47:11;6.70;99.90
20998;DHT22;10657;51.276;6.390;2023-02-28T09:49:44;6.90;99.90
20998;DHT22;10657;51.276;6.390;2023-02-28T09:52:17;6.90;99.80
20998;DHT22;10657;51.276;6.390;2023-02-28T09:54:45;7.20;99.90
20998;DHT22;10657;51.276;6.390;2023-02-28T09:57:29;7.00;99.90
20998;DHT22;10657;51.276;6.390;2023-02-28T10:02:53;6.70;99.90
20998;DHT22;10657;51.276;6.390;2023-02-28T10:05:33;6.80;99.90
20998;DHT22;10657;51.276;6.390;2023-02-28T10:08:25;6.90;99.90
20998;DHT22;10657;51.276;6.390;2023-02-28T10:11:07;7.00;98.30
20998;DHT22;10657;51.276;6.390;2023-02-28T10:16:12;7.20;99.50
20998;DHT22;10657;51.276;6.390;2023-02-28T10:18:48;7.20;99.90
20998;DHT22;10657;51.276;6.390;2023-02-28T10:21:55;7.10;99.20
20998;DHT22;10657;51.276;6.390;2023-02-28T10:24:39;7.00;99.90
20998;DHT22;10657;51.276;6.390;2023-02-28T10:27:21;7.10;99.90
20998;DHT22;10657;51.276;6.390;2023-02-28T10:29:57;6.90;99.00
20998;DHT22;10657;51.276;6.390;2023-02-28T10:37:28;7.40;95.50
20998;DHT22;10657;51.276;6.390;2023-02-28T10:39:54;7.40;98.10
20998;DHT22;10657;51.276;6.390;2023-02-28T10:42:26;7.50;99.90
20998;DHT22;10657;51.276;6.390;2023-02-28T10:47:57;7.60;99.40
20998;DHT22;10657;51.276;6.390;2023-02-28T10:50:32;7.50;97.40
20998;DHT22;10657;51.276;6.390;2023-02-28T10:55:44;7.50;97.00
20998;DHT22;10657;51.276;6.390;2023-02-28T10:58:24;7.60;97.30
20998;DHT22;10657;51.276;6.390;2023-02-28T11:00:51;7.60;99.90
20998;DHT22;10657;51.276;6.390;2023-02-28T11:03:31;7.70;98.90
20998;DHT22;10657;51.276;6.390;2023-02-28T11:05:58;7.50;97.30
20998;DHT22;10657;51.276;6.390;2023-02-28T11:08:25;7.40;99.90
20998;DHT22;10657;51.276;6.390;2023-02-28T11:11:02;7.30;95.00
20998;DHT22;10657;51.276;6.390;2023-02-28T11:13:34;7.40;96.30
20998;DHT22;10657;51.276;6.390;2023-02-28T11:16:04;7.60;98.40
20998;DHT22;10657;51.276;6.390;2023-02-28T11:18:50;7.80;95.60
20998;DHT22;10657;51.276;6.390;2023-02-28T11:21:23;8.00;97.60
20998;DHT22;10657;51.276;6.390;2023-02-28T11:24:00;8.10;96.00
20998;DHT22;10657;51.276;6.390;2023-02-28T11:26:47;8.20;99.00
20998;DHT22;10657;51.276;6.390;2023-02-28T11:29:37;8.10;99.20
20998;DHT22;10657;51.276;6.390;2023-02-28T11:32:19;7.80;98.30
20998;DHT22;10657;51.276;6.390;2023-02-28T11:37:31;8.20;96.00
20998;DHT22;10657;51.276;6.390;2023-02-28T11:39:57;8.20;95.50
20998;DHT22;10657;51.276;6.390;2023-02-28T11:48:09;8.20;94.20
20998;DHT22;10657;51.276;6.390;2023-02-28T11:50:57;8.10;93.60
20998;DHT22;10657;51.276;6.390;2023-02-28T11:56:44;8.70;94.70
20998;DHT22;10657;51.276;6.390;2023-02-28T12:07:35;8.80;93.90
20998;DHT22;10657;51.276;6.390;2023-02-28T12:13:06;9.10;99.70
20998;DHT22;10657;51.276;6.390;2023-02-28T12:16:00;9.10;95.00
20998;DHT22;10657;51.276;6.390;2023-02-28T12:26:39;8.80;98.80
20998;DHT22;10657;51.276;6.390;2023-02-28T12:29:28;8.90;94.10
20998;DHT22;10657;51.276;6.390;2023-02-28T12:32:11;9.10;93.80
20998;DHT22;10657;51.276;6.390;2023-02-28T12:34:44;8.80;94.50
20998;DHT22;10657;51.276;6.390;2023-02-28T12:37:28;8.30;92.20
20998;DHT22;10657;51.276;6.390;2023-02-28T12:40:03;8.80;97.50
20998;DHT22;10657;51.276;6.390;2023-02-28T12:42:39;9.30;93.30
20998;DHT22;10657;51.276;6.390;2023-02-28T12:45:10;9.00;97.00
20998;DHT22;10657;51.276;6.390;2023-02-28T12:47:38;9.10;95.40
20998;DHT22;10657;51.276;6.390;2023-02-28T12:50:08;9.10;95.00
20998;DHT22;10657;51.276;6.390;2023-02-28T12:52:59;9.20;98.20
20998;DHT22;10657;51.276;6.390;2023-02-28T12:55:52;9.30;95.90
20998;DHT22;10657;51.276;6.390;2023-02-28T13:09:12;9.50;92.70
20998;DHT22;10657;51.276;6.390;2023-02-28T13:11:52;9.60;95.50
20998;DHT22;10657;51.276;6.390;2023-02-28T13:19:32;9.50;96.20
20998;DHT22;10657;51.276;6.390;2023-02-28T13:22:01;9.80;93.70
20998;DHT22;10657;51.276;6.390;2023-02-28T13:29:34;9.80;93.00
20998;DHT22;10657;51.276;6.390;2023-02-28T13:34:49;9.70;87.90
20998;DHT22;10657;51.276;6.390;2023-02-28T13:37:36;9.90;95.20
20998;DHT22;10657;51.276;6.390;2023-02-28T13:42:47;10.10;95.60
20998;DHT22;10657;51.276;6.390;2023-02-28T13:45:27;10.10;93.80
20998;DHT22;10657;51.276;6.390;2023-02-28T13:47:55;10.10;94.80
20998;DHT22;10657;51.276;6.390;2023-02-28T13:50:29;10.20;92.40
20998;DHT22;10657;51.276;6.390;2023-02-28T13:55:53;10.50;93.00
20998;DHT22;10657;51.276;6.390;2023-02-28T14:06:55;10.90;94.10
20998;DHT22;10657;51.276;6.390;2023-02-28T14:09:32;10.80;90.40
20998;DHT22;10657;51.276;6.390;2023-02-28T14:20:46;10.70;91.90
20998;DHT22;10657;51.276;6.390;2023-02-28T14:23:30;10.70;90.40
20998;DHT22;10657;51.276;6.390;2023-02-28T14:26:35;11.00;90.10
20998;DHT22;10657;51.276;6.390;2023-02-28T14:29:15;11.10;89.80
20998;DHT22;10657;51.276;6.390;2023-02-28T14:31:54;11.10;91.00
20998;DHT22;10657;51.276;6.390;2023-02-28T14:37:26;11.10;84.90
20998;DHT22;10657;51.276;6.390;2023-02-28T14:39:53;11.20;91.40
20998;DHT22;10657;51.276;6.390;2023-02-28T14:42:37;11.20;90.10
20998;DHT22;10657;51.276;6.390;2023-02-28T14:45:20;11.00;91.60
20998;DHT22;10657;51.276;6.390;2023-02-28T14:47:49;11.10;88.00
20998;DHT22;10657;51.276;6.390;2023-02-28T14:50:26;11.30;91.00
20998;DHT22;10657;51.276;6.390;2023-02-28T14:52:54;10.80;88.40
20998;DHT22;10657;51.276;6.390;2023-02-28T14:55:33;10.90;90.60
20998;DHT22;10657;51.276;6.390;2023-02-28T14:58:03;10.80;90.60
20998;DHT22;10657;51.276;6.390;2023-02-28T15:00:34;10.70;86.10
20998;DHT22;10657;51.276;6.390;2023-02-28T15:03:27;10.50;90.40
20998;DHT22;10657;51.276;6.390;2023-02-28T15:05:58;10.20;91.10
20998;DHT22;10657;51.276;6.390;2023-02-28T15:08:26;10.20;91.00
20998;DHT22;10657;51.276;6.390;2023-02-28T15:16:17;10.00;90.10
20998;DHT22;10657;51.276;6.390;2023-02-28T15:18:59;10.00;93.40
20998;DHT22;10657;51.276;6.390;2023-02-28T15:21:29;9.60;85.60
20998;DHT22;10657;51.276;6.390;2023-02-28T15:24:17;9.50;92.30
20998;DHT22;10657;51.276;6.390;2023-02-28T15:26:58;9.80;91.30
20998;DHT22;10657;51.276;6.390;2023-02-28T15:29:29;9.90;90.60
20998;DHT22;10657;51.276;6.390;2023-02-28T15:32:06;10.00;92.50
20998;DHT22;10657;51.276;6.390;2023-02-28T15:34:39;10.40;91.70
20998;DHT22;10657;51.276;6.390;2023-02-28T15:37:40;10.70;91.90
20998;DHT22;10657;51.276;6.390;2023-02-28T15:40:18;10.80;90.40
20998;DHT22;10657;51.276;6.390;2023-02-28T15:43:00;10.60;91.40
20998;DHT22;10657;51.276;6.390;2023-02-28T15:45:34;10.50;92.50
20998;DHT22;10657;51.276;6.390;2023-02-28T15:48:09;10.60;90.50
20998;DHT22;10657;51.276;6.390;2023-02-28T15:50:40;10.60;90.30
20998;DHT22;10657;51.276;6.390;2023-02-28T15:53:14;10.70;89.70
20998;DHT22;10657;51.276;6.390;2023-02-28T15:55:42;10.50;91.60
20998;DHT22;10657;51.276;6.390;2023-02-28T15:58:11;10.50;90.80
20998;DHT22;10657;51.276;6.390;2023-02-28T16:00:39;10.80;91.40
20998;DHT22;10657;51.276;6.390;2023-02-28T16:03:35;10.60;90.30
20998;DHT22;10657;51.276;6.390;2023-02-28T16:06:34;10.30;90.70
20998;DHT22;10657;51.276;6.390;2023-02-28T16:09:01;10.60;92.20
20998;DHT22;10657;51.276;6.390;2023-02-28T16:11:28;10.80;91.80
20998;DHT22;10657;51.276;6.390;2023-02-28T16:13:56;10.90;88.30
20998;DHT22;10657;51.276;6.390;2023-02-28T16:16:24;11.20;90.90
20998;DHT22;10657;51.276;6.390;2023-02-28T16:18:53;10.90;90.90
20998;DHT22;10657;51.276;6.390;2023-02-28T16:21:20;11.00;90.40
20998;DHT22;10657;51.276;6.390;2023-02-28T16:23:46;11.00;91.00
20998;DHT22;10657;51.276;6.390;2023-02-28T16:26:23;10.50;91.90
20998;DHT22;10657;51.276;6.390;2023-02-28T16:28:51;10.00;90.80
20998;DHT22;10657;51.276;6.390;2023-02-28T16:31:18;9.90;91.00
20998;DHT22;10657;51.276;6.390;2023-02-28T16:33:45;10.00;91.70
20998;DHT22;10657;51.276;6.390;2023-02-28T16:36:19;10.00;90.20
20998;DHT22;10657;51.276;6.390;2023-02-28T16:38:46;10.10;91.40
20998;DHT22;10657;51.276;6.390;2023-02-28T16:41:21;9.90;92.50
20998;DHT22;10657;51.276;6.390;2023-02-28T16:43:51;9.50;92.60
20998;DHT22;10657;51.276;6.390;2023-02-28T16:46:18;9.00;92.40
20998;DHT22;10657;51.276;6.390;2023-02-28T16:48:46;9.00;94.10
20998;DHT22;10657;51.276;6.390;2023-02-28T16:51:18;8.70;91.80
20998;DHT22;10657;51.276;6.390;2023-02-28T16:53:45;8.70;92.90
20998;DHT22;10657;51.276;6.390;2023-02-28T16:56:23;8.50;93.90
20998;DHT22;10657;51.276;6.390;2023-02-28T16:58:51;8.50;93.10
20998;DHT22;10657;51.276;6.390;2023-02-28T17:01:18;8.50;95.20
20998;DHT22;10657;51.276;6.390;2023-02-28T17:03:49;8.90;92.60
20998;DHT22;10657;51.276;6.390;2023-02-28T17:06:22;8.60;91.20
20998;DHT22;10657;51.276;6.390;2023-02-28T17:08:52;8.30;92.50
20998;DHT22;10657;51.276;6.390;2023-02-28T17:11:18;8.10;94.60
20998;DHT22;10657;51.276;6.390;2023-02-28T17:13:45;8.10;96.00
20998;DHT22;10657;51.276;6.390;2023-02-28T17:16:23;7.90;92.90
20998;DHT22;10657;51.276;6.390;2023-02-28T17:18:53;7.70;93.80
20998;DHT22;10657;51.276;6.390;2023-02-28T17:21:20;7.30;94.30
20998;DHT22;10657;51.276;6.390;2023-02-28T17:23:47;7.00;95.00
20998;DHT22;10657;51.276;6.390;2023-02-28T17:26:15;7.00;96.10
20998;DHT22;10657;51.276;6.390;2023-02-28T17:28:43;6.90;93.20
20998;DHT22;10657;51.276;6.390;2023-02-28T17:31:10;7.00;95.80
20998;DHT22;10657;51.276;6.390;2023-02-28T17:33:37;7.00;97.00
20998;DHT22;10657;51.276;6.390;2023-02-28T17:36:05;7.10;98.10
20998;DHT22;10657;51.276;6.390;2023-02-28T17:38:31;7.30;97.90
20998;DHT22;10657;51.276;6.390;2023-02-28T17:40:58;7.30;97.10
20998;DHT22;10657;51.276;6.390;2023-02-28T17:43:26;7.40;96.10
20998;DHT22;10657;51.276;6.390;2023-02-28T17:45:53;7.40;97.00
20998;DHT22;10657;51.276;6.390;2023-02-28T17:48:20;7.30;94.50
20998;DHT22;10657;51.276;6.390;2023-02-28T17:50:46;7.30;97.60
20998;DHT22;10657;51.276;6.390;2023-02-28T17:53:13;7.20;94.70
20998;DHT22;10657;51.276;6.390;2023-02-28T17:55:40;7.10;94.60
20998;DHT22;10657;51.276;6.390;2023-02-28T17:58:10;7.00;96.60
20998;DHT22;10657;51.276;6.390;2023-02-28T18:00:38;6.90;97.30
20998;DHT22;10657;51.276;6.390;2023-02-28T18:03:05;7.20;95.70
20998;DHT22;10657;51.276;6.390;2023-02-28T18:05:31;7.00;95.20
20998;DHT22;10657;51.276;6.390;2023-02-28T18:07:58;6.90;96.30
20998;DHT22;10657;51.276;6.390;2023-02-28T18:10:25;6.90;96.10
20998;DHT22;10657;51.276;6.390;2023-02-28T18:12:53;6.90;96.70
20998;DHT22;10657;51.276;6.390;2023-02-28T18:15:21;6.80;95.60
20998;DHT22;10657;51.276;6.390;2023-02-28T18:17:48;6.70;97.70
20998;DHT22;10657;51.276;6.390;2023-02-28T18:20:15;6.80;98.00
20998;DHT22;10657;51.276;6.390;2023-02-28T18:22:43;6.70;98.70
20998;DHT22;10657;51.276;6.390;2023-02-28T18:25:11;6.40;95.30
20998;DHT22;10657;51.276;6.390;2023-02-28T18:27:43;6.10;96.60
20998;DHT22;10657;51.276;6.390;2023-02-28T18:30:20;5.80;96.00